createdAt,value
2022-08-25T00:02:00.017Z,9.68
2022-08-25T00:04:29.520Z,8.70
2022-08-25T00:07:02.126Z,9.65
2022-08-25T00:09:32.478Z,7.85
2022-08-25T00:12:00.753Z,9.18
2022-08-25T00:14:35.049Z,8.15
2022-08-25T00:17:03.536Z,9.68
2022-08-25T00:19:34.147Z,10.30
2022-08-25T00:22:02.831Z,10.88
2022-08-25T00:24:31.019Z,9.80
2022-08-25T00:27:00.505Z,9.98
2022-08-25T00:29:30.189Z,9.68
2022-08-25T00:31:58.064Z,10.05
2022-08-25T00:34:29.600Z,10.07
2022-08-25T00:36:57.475Z,9.73
2022-08-25T00:39:25.204Z,8.32
2022-08-25T00:41:56.490Z,10.52
2022-08-25T00:44:26.076Z,9.30
2022-08-25T00:46:57.927Z,8.68
2022-08-25T00:49:40.288Z,8.52
2022-08-25T00:52:13.152Z,9.77
2022-08-25T00:54:43.851Z,8.77
2022-08-25T00:57:14.135Z,9.00
2022-08-25T00:59:42.817Z,9.07
2022-08-25T01:02:13.851Z,9.73
2022-08-25T01:04:48.962Z,9.55
2022-08-25T01:07:19.510Z,9.02
2022-08-25T01:09:49.811Z,9.60
2022-08-25T01:12:17.365Z,8.35
2022-08-25T01:14:46.494Z,9.70
2022-08-25T01:17:14.853Z,9.35
2022-08-25T01:19:42.797Z,9.82
2022-08-25T01:22:11.946Z,10.48
2022-08-25T01:24:50.730Z,9.18
2022-08-25T01:27:18.036Z,8.90
2022-08-25T01:29:46.326Z,9.77
2022-08-25T01:32:14.824Z,9.80
2022-08-25T01:34:44.724Z,10.25
2022-08-25T01:37:15.347Z,10.27
2022-08-25T01:39:43.891Z,10.40
2022-08-25T01:42:24.515Z,10.07
2022-08-25T01:44:51.938Z,9.70
2022-08-25T01:47:19.340Z,10.60
2022-08-25T01:49:46.787Z,9.65
2022-08-25T01:52:36.896Z,9.70
2022-08-25T01:55:04.887Z,11.57
2022-08-25T01:57:32.364Z,10.15
2022-08-25T02:00:01.652Z,10.48
2022-08-25T02:02:42.567Z,9.65
2022-08-25T02:05:14.045Z,8.98
2022-08-25T02:07:42.399Z,9.57
2022-08-25T02:10:13.879Z,9.45
2022-08-25T02:12:41.223Z,9.65
2022-08-25T02:15:09.923Z,8.88
2022-08-25T02:17:37.337Z,8.35
2022-08-25T02:20:07.143Z,10.43
2022-08-25T02:22:34.488Z,9.25
2022-08-25T02:25:01.812Z,9.77
2022-08-25T02:27:29.351Z,9.93
2022-08-25T02:29:56.720Z,9.07
2022-08-25T02:32:24.306Z,10.60
2022-08-25T02:34:51.604Z,9.98
2022-08-25T02:37:20.492Z,10.38
2022-08-25T02:39:48.173Z,9.20
2022-08-25T02:42:15.592Z,8.90
2022-08-25T02:44:43.036Z,9.23
2022-08-25T02:47:10.540Z,8.82
2022-08-25T02:49:37.989Z,8.40
2022-08-25T02:52:05.622Z,9.57
2022-08-25T02:54:33.279Z,9.40
2022-08-25T02:57:00.794Z,10.52
2022-08-25T02:59:28.291Z,9.68
2022-08-25T03:01:56.010Z,9.55
2022-08-25T03:04:23.801Z,10.80
2022-08-25T03:06:51.178Z,9.57
2022-08-25T03:09:18.584Z,9.68
2022-08-25T03:11:46.952Z,9.63
2022-08-25T03:14:15.224Z,9.13
2022-08-25T03:16:46.254Z,9.25
2022-08-25T03:19:14.456Z,9.50
2022-08-25T03:21:41.764Z,9.30
2022-08-25T03:24:09.308Z,10.05
2022-08-25T03:26:55.838Z,10.02
2022-08-25T03:29:29.572Z,10.32
2022-08-25T03:31:59.518Z,9.25
2022-08-25T03:34:29.935Z,9.48
2022-08-25T03:36:58.313Z,9.52
2022-08-25T03:39:27.299Z,8.95
2022-08-25T03:41:55.292Z,9.18
2022-08-25T03:44:22.935Z,9.23
2022-08-25T03:46:52.389Z,9.50
2022-08-25T03:49:23.267Z,9.65
2022-08-25T03:51:52.346Z,9.52
2022-08-25T03:54:24.315Z,8.98
2022-08-25T03:56:52.623Z,10.63
2022-08-25T03:59:20.387Z,10.60
2022-08-25T04:01:52.644Z,10.30
2022-08-25T04:04:22.688Z,11.07
2022-08-25T04:06:50.272Z,9.75
2022-08-25T04:09:17.775Z,9.60
2022-08-25T04:11:45.431Z,9.38
2022-08-25T04:14:16.516Z,9.57
2022-08-25T04:16:45.402Z,9.75
2022-08-25T04:19:13.536Z,9.05
2022-08-25T04:21:42.317Z,9.40
2022-08-25T04:24:11.951Z,9.40
2022-08-25T04:26:42.782Z,9.65
2022-08-25T04:29:13.064Z,9.90
2022-08-25T04:31:42.999Z,10.50
2022-08-25T04:34:29.965Z,9.70
2022-08-25T04:37:05.493Z,10.88
2022-08-25T04:39:33.186Z,10.32
2022-08-25T04:42:01.496Z,9.93
2022-08-25T04:44:31.816Z,10.68
2022-08-25T04:47:00.472Z,10.23
2022-08-25T04:49:28.765Z,9.45
2022-08-25T04:51:57.701Z,11.02
2022-08-25T04:54:25.531Z,10.07
2022-08-25T04:56:54.677Z,10.05
2022-08-25T04:59:30.606Z,9.55
2022-08-25T05:02:02.387Z,10.00
2022-08-25T05:04:32.596Z,9.60
2022-08-25T05:07:00.937Z,9.90
2022-08-25T05:09:29.050Z,10.00
2022-08-25T05:12:02.835Z,9.60
2022-08-25T05:14:32.303Z,11.40
2022-08-25T05:16:59.861Z,11.13
2022-08-25T05:19:28.024Z,10.77
2022-08-25T05:21:57.820Z,11.23
2022-08-25T05:24:26.736Z,10.88
2022-08-25T05:26:54.487Z,11.10
2022-08-25T05:29:22.609Z,11.10
2022-08-25T05:31:50.937Z,10.20
2022-08-25T05:34:19.682Z,10.82
2022-08-25T05:36:48.684Z,9.48
2022-08-25T05:39:16.587Z,10.80
2022-08-25T05:41:44.488Z,11.02
2022-08-25T05:44:12.919Z,9.95
2022-08-25T05:46:40.409Z,9.85
2022-08-25T05:49:08.072Z,11.30
2022-08-25T05:51:35.535Z,8.98
2022-08-25T05:54:03.948Z,11.07
2022-08-25T05:56:31.748Z,11.15
2022-08-25T05:58:59.701Z,10.23
2022-08-25T06:01:47.791Z,10.85
2022-08-25T06:04:20.278Z,11.05
2022-08-25T06:06:48.945Z,10.10
2022-08-25T06:09:16.898Z,10.60
2022-08-25T06:11:44.831Z,10.65
2022-08-25T06:14:12.373Z,11.20
2022-08-25T06:16:40.454Z,11.05
2022-08-25T06:19:10.135Z,11.30
2022-08-25T06:21:39.406Z,10.80
2022-08-25T06:24:12.070Z,12.35
2022-08-25T06:26:43.930Z,11.68
2022-08-25T06:29:13.992Z,12.65
2022-08-25T06:31:42.827Z,11.88
2022-08-25T06:34:11.522Z,12.20
2022-08-25T06:36:39.571Z,11.68
2022-08-25T06:39:07.905Z,12.38
2022-08-25T06:41:39.015Z,13.38
2022-08-25T06:44:06.755Z,12.68
2022-08-25T06:46:36.719Z,10.30
2022-08-25T06:49:06.179Z,11.05
2022-08-25T06:51:37.771Z,11.70
2022-08-25T06:54:06.764Z,12.05
2022-08-25T06:56:34.830Z,10.25
2022-08-25T06:59:04.528Z,12.32
2022-08-25T07:01:32.656Z,10.63
2022-08-25T07:04:03.725Z,11.10
2022-08-25T07:06:35.419Z,11.93
2022-08-25T07:09:06.551Z,11.25
2022-08-25T07:11:34.814Z,10.90
2022-08-25T07:14:04.327Z,10.32
2022-08-25T07:16:32.797Z,14.63
2022-08-25T07:19:01.279Z,10.30
2022-08-25T07:21:33.377Z,11.23
2022-08-25T07:24:07.348Z,11.43
2022-08-25T07:26:38.600Z,10.27
2022-08-25T07:29:13.952Z,10.63
2022-08-25T07:31:41.990Z,10.70
2022-08-25T07:34:28.812Z,13.45
2022-08-25T07:36:57.456Z,12.80
2022-08-25T07:39:27.165Z,10.13
2022-08-25T07:41:56.892Z,9.93
2022-08-25T07:44:27.929Z,9.63
2022-08-25T07:46:55.795Z,10.82
2022-08-25T07:49:24.914Z,9.73
2022-08-25T07:52:04.689Z,8.85
2022-08-25T07:54:37.654Z,8.13
2022-08-25T07:57:08.585Z,9.48
2022-08-25T07:59:40.692Z,8.95
2022-08-25T08:02:18.171Z,9.27
2022-08-25T08:04:52.288Z,9.65
2022-08-25T08:07:23.149Z,8.38
2022-08-25T08:10:04.732Z,8.88
2022-08-25T08:12:39.537Z,7.53
2022-08-25T08:15:10.537Z,8.52
2022-08-25T08:17:39.738Z,8.07
2022-08-25T08:20:09.527Z,8.38
2022-08-25T08:22:41.248Z,8.70
2022-08-25T08:25:11.502Z,7.75
2022-08-25T08:27:47.157Z,8.50
2022-08-25T08:30:15.031Z,7.95
2022-08-25T08:33:08.191Z,7.43
2022-08-25T08:35:30.780Z,7.50
2022-08-25T08:37:58.548Z,7.90
2022-08-25T08:40:26.359Z,8.48
2022-08-25T08:43:02.423Z,8.02
2022-08-25T08:45:40.617Z,7.95
2022-08-25T08:48:49.474Z,8.32
2022-08-25T08:51:25.295Z,7.97
2022-08-25T08:54:14.882Z,5.78
2022-08-25T08:56:48.631Z,6.60
2022-08-25T08:59:30.464Z,5.75
2022-08-25T09:02:00.487Z,6.13
2022-08-25T09:04:41.160Z,6.82
2022-08-25T09:07:16.264Z,5.90
2022-08-25T09:09:44.748Z,6.00
2022-08-25T09:12:41.657Z,6.55
2022-08-25T09:15:54.751Z,6.60
2022-08-25T09:18:52.658Z,5.65
2022-08-25T09:21:45.364Z,5.95
2022-08-25T09:24:32.550Z,6.10
2022-08-25T09:27:26.624Z,6.15
2022-08-25T09:30:14.815Z,6.32
2022-08-25T09:32:48.744Z,6.65
2022-08-25T09:35:21.983Z,5.65
2022-08-25T09:38:15.878Z,6.75
2022-08-25T09:40:52.145Z,5.75
2022-08-25T09:43:33.799Z,6.18
2022-08-25T09:46:13.355Z,7.38
2022-08-25T09:48:56.102Z,6.00
2022-08-25T09:51:29.254Z,6.78
2022-08-25T09:54:10.440Z,6.47
2022-08-25T09:56:49.072Z,6.50
2022-08-25T09:59:35.111Z,6.25
2022-08-25T10:02:25.763Z,6.65
2022-08-25T10:04:54.178Z,6.70
2022-08-25T10:07:29.602Z,5.53
2022-08-25T10:10:01.808Z,5.70
2022-08-25T10:12:42.628Z,6.35
2022-08-25T10:15:29.868Z,6.03
2022-08-25T10:18:27.515Z,7.28
2022-08-25T10:21:18.915Z,5.70
2022-08-25T10:23:49.615Z,6.50
2022-08-25T10:26:50.995Z,5.88
2022-08-25T10:29:53.092Z,5.72
2022-08-25T10:32:28.548Z,6.40
2022-08-25T10:34:59.541Z,5.18
2022-08-25T10:38:08.529Z,6.35
2022-08-25T10:40:44.836Z,5.82
2022-08-25T10:43:31.279Z,5.80
2022-08-25T10:46:23.706Z,5.57
2022-08-25T10:48:59.337Z,5.70
2022-08-25T10:51:43.469Z,10.50
2022-08-25T10:54:25.488Z,5.15
2022-08-25T10:57:17.976Z,8.57
2022-08-25T10:59:59.856Z,5.20
2022-08-25T11:02:36.426Z,4.93
2022-08-25T11:05:26.386Z,5.32
2022-08-25T11:08:07.884Z,4.72
2022-08-25T11:10:44.778Z,5.72
2022-08-25T11:13:26.708Z,4.72
2022-08-25T11:16:17.386Z,5.20
2022-08-25T11:18:59.312Z,5.43
2022-08-25T11:21:40.660Z,5.30
2022-08-25T11:24:31.983Z,5.07
2022-08-25T11:27:08.400Z,4.95
2022-08-25T11:29:43.820Z,5.50
2022-08-25T11:32:11.767Z,5.13
2022-08-25T11:34:43.655Z,5.13
2022-08-25T11:37:23.135Z,5.57
2022-08-25T11:40:08.827Z,5.47
2022-08-25T11:42:46.943Z,5.68
2022-08-25T11:45:42.289Z,5.13
2022-08-25T11:48:41.614Z,6.07
2022-08-25T11:51:25.479Z,5.20
2022-08-25T11:54:39.398Z,4.65
2022-08-25T11:57:19.515Z,4.55
2022-08-25T11:59:51.407Z,4.75
2022-08-25T12:02:43.603Z,5.72
2022-08-25T12:05:24.502Z,5.85
2022-08-25T12:08:13.437Z,4.75
2022-08-25T12:11:10.645Z,6.35
2022-08-25T12:13:48.439Z,5.35
2022-08-25T12:16:35.433Z,5.45
2022-08-25T12:19:30.887Z,5.00
2022-08-25T12:22:03.747Z,4.93
2022-08-25T12:24:59.108Z,5.07
2022-08-25T12:28:01.542Z,5.18
2022-08-25T12:30:45.685Z,5.35
2022-08-25T12:33:33.047Z,5.60
2022-08-25T12:36:07.473Z,5.05
2022-08-25T12:38:50.926Z,6.03
2022-08-25T12:41:27.379Z,5.60
2022-08-25T12:44:39.076Z,6.18
2022-08-25T12:47:34.163Z,6.13
2022-08-25T12:50:40.797Z,6.03
2022-08-25T12:53:17.818Z,5.78
2022-08-25T12:55:51.550Z,7.22
2022-08-25T12:58:19.211Z,5.97
2022-08-25T13:01:17.485Z,6.43
2022-08-25T13:04:19.509Z,6.65
2022-08-25T13:07:03.080Z,7.00
2022-08-25T13:09:42.903Z,7.22
2022-08-25T13:12:18.852Z,6.43
2022-08-25T13:14:57.440Z,5.53
2022-08-25T13:17:34.167Z,6.88
2022-08-25T13:20:26.528Z,6.28
2022-08-25T13:22:59.904Z,6.05
2022-08-25T13:25:32.741Z,7.00
2022-08-25T13:28:04.918Z,5.60
2022-08-25T13:30:35.227Z,7.20
2022-08-25T13:33:20.651Z,7.35
2022-08-25T13:36:11.673Z,5.85
2022-08-25T13:38:39.874Z,6.90
2022-08-25T13:41:09.765Z,5.72
2022-08-25T13:43:39.256Z,5.50
2022-08-25T13:46:08.578Z,5.95
2022-08-25T13:48:49.618Z,5.40
2022-08-25T13:51:22.943Z,5.50
2022-08-25T13:53:54.588Z,5.65
2022-08-25T13:56:35.585Z,5.93
2022-08-25T13:59:27.924Z,6.47
2022-08-25T14:01:56.019Z,5.95
2022-08-25T14:04:29.488Z,5.95
2022-08-25T14:07:27.138Z,5.65
2022-08-25T14:10:10.780Z,5.53
2022-08-25T14:12:46.885Z,5.13
2022-08-25T14:15:18.057Z,5.72
2022-08-25T14:18:01.849Z,5.63
2022-08-25T14:20:31.132Z,4.57
2022-08-25T14:23:12.843Z,5.47
2022-08-25T14:25:43.847Z,5.22
2022-08-25T14:28:15.163Z,5.15
2022-08-25T14:30:49.205Z,5.38
2022-08-25T14:33:19.750Z,5.93
2022-08-25T14:35:53.713Z,5.72
2022-08-25T14:38:22.366Z,5.13
2022-08-25T14:40:50.952Z,5.47
2022-08-25T14:43:18.555Z,5.03
2022-08-25T14:45:52.193Z,5.47
2022-08-25T14:48:37.244Z,5.40
2022-08-25T14:51:05.255Z,4.35
2022-08-25T14:53:33.648Z,4.72
2022-08-25T14:56:08.607Z,4.47
2022-08-25T14:58:48.449Z,4.07
2022-08-25T15:01:29.530Z,4.78
2022-08-25T15:04:07.261Z,4.07
2022-08-25T15:06:36.618Z,4.53
2022-08-25T15:09:08.340Z,5.10
2022-08-25T15:11:41.654Z,5.75
2022-08-25T15:14:12.218Z,5.43
2022-08-25T15:16:44.760Z,5.63
2022-08-25T15:19:15.941Z,5.18
2022-08-25T15:21:46.053Z,4.95
2022-08-25T15:24:17.763Z,5.38
2022-08-25T15:29:24.376Z,5.65
2022-08-25T15:31:52.276Z,5.00
2022-08-25T15:34:19.860Z,5.20
2022-08-25T15:36:48.155Z,4.60
2022-08-25T15:39:17.976Z,4.97
2022-08-25T15:41:52.435Z,4.88
2022-08-25T15:44:20.536Z,5.18
2022-08-25T15:46:50.016Z,4.38
2022-08-25T15:49:23.159Z,5.28
2022-08-25T15:51:55.183Z,4.72
2022-08-25T15:54:26.779Z,5.47
2022-08-25T15:56:56.620Z,5.80
2022-08-25T15:59:25.365Z,5.38
2022-08-25T16:01:54.005Z,4.93
2022-08-25T16:04:23.764Z,5.90
2022-08-25T16:06:52.943Z,4.10
2022-08-25T16:09:23.091Z,5.57
2022-08-25T16:11:56.889Z,4.75
2022-08-25T16:14:27.538Z,5.53
2022-08-25T16:16:58.457Z,5.13
2022-08-25T16:19:28.568Z,5.15
2022-08-25T16:21:57.196Z,4.10
2022-08-25T16:24:25.031Z,4.90
2022-08-25T16:26:52.540Z,4.45
2022-08-25T16:29:23.634Z,5.38
2022-08-25T16:31:54.839Z,5.20
2022-08-25T16:34:24.603Z,4.47
2022-08-25T16:36:53.171Z,4.85
2022-08-25T16:39:22.035Z,5.43
2022-08-25T16:41:52.115Z,4.55
2022-08-25T16:44:22.703Z,5.07
2022-08-25T16:46:54.212Z,4.28
2022-08-25T16:49:24.371Z,5.15
2022-08-25T16:51:57.481Z,5.13
2022-08-25T16:54:45.020Z,4.57
2022-08-25T16:57:13.444Z,4.38
2022-08-25T16:59:42.412Z,4.22
2022-08-25T17:02:12.070Z,4.43
2022-08-25T17:04:40.635Z,5.15
2022-08-25T17:07:08.155Z,4.50
2022-08-25T17:09:36.054Z,4.80
2022-08-25T17:12:04.978Z,4.97
2022-08-25T17:14:33.377Z,4.90
2022-08-25T17:17:02.471Z,5.30
2022-08-25T17:19:31.375Z,5.90
2022-08-25T17:21:58.660Z,5.55
2022-08-25T17:24:29.292Z,5.05
2022-08-25T17:27:00.098Z,5.00
2022-08-25T17:29:29.443Z,5.40
2022-08-25T17:31:58.554Z,5.78
2022-08-25T17:34:28.012Z,5.05
2022-08-25T17:36:56.444Z,5.40
2022-08-25T17:39:25.871Z,5.95
2022-08-25T17:41:54.582Z,5.38
2022-08-25T17:44:22.419Z,5.60
2022-08-25T17:46:50.782Z,4.90
2022-08-25T17:49:19.584Z,5.82
2022-08-25T17:51:47.103Z,6.30
2022-08-25T17:54:15.216Z,5.40
2022-08-25T17:56:43.798Z,5.03
2022-08-25T17:59:12.039Z,5.60
2022-08-25T18:01:40.285Z,5.57
2022-08-25T18:04:17.484Z,6.22
2022-08-25T18:06:48.354Z,5.60
2022-08-25T18:09:17.450Z,5.57
2022-08-25T18:11:46.020Z,5.32
2022-08-25T18:14:16.426Z,5.93
2022-08-25T18:16:44.563Z,5.65
2022-08-25T18:19:14.331Z,5.30
2022-08-25T18:21:43.329Z,6.43
2022-08-25T18:24:11.890Z,5.03
2022-08-25T18:26:41.121Z,5.35
2022-08-25T18:29:12.920Z,5.45
2022-08-25T18:31:42.429Z,5.30
2022-08-25T18:34:11.299Z,6.32
2022-08-25T18:36:39.241Z,4.95
2022-08-25T18:39:25.912Z,5.88
2022-08-25T18:41:53.883Z,7.65
2022-08-25T18:44:21.510Z,6.72
2022-08-25T18:46:49.443Z,6.03
2022-08-25T18:49:17.300Z,6.13
2022-08-25T18:51:46.576Z,6.75
2022-08-25T18:54:22.816Z,6.47
2022-08-25T18:56:54.554Z,7.10
2022-08-25T18:59:23.407Z,5.32
2022-08-25T19:01:53.681Z,5.70
2022-08-25T19:04:31.249Z,6.22
2022-08-25T19:07:00.501Z,7.00
2022-08-25T19:09:28.385Z,7.05
2022-08-25T19:11:56.974Z,5.90
2022-08-25T19:14:24.400Z,8.40
2022-08-25T19:16:54.580Z,7.00
2022-08-25T19:19:24.581Z,6.68
2022-08-25T19:21:51.960Z,6.20
2022-08-25T19:24:20.036Z,7.25
2022-08-25T19:26:50.476Z,6.50
2022-08-25T19:29:21.717Z,6.43
2022-08-25T19:31:49.524Z,6.07
2022-08-25T19:34:27.992Z,7.38
2022-08-25T19:36:56.572Z,7.45
2022-08-25T19:39:24.449Z,7.78
2022-08-25T19:41:52.191Z,6.75
2022-08-25T19:44:20.984Z,7.25
2022-08-25T19:46:48.820Z,6.53
2022-08-25T19:49:26.189Z,6.05
2022-08-25T19:51:55.345Z,8.25
2022-08-25T19:54:32.940Z,7.60
2022-08-25T19:57:01.164Z,7.57
2022-08-25T19:59:34.297Z,6.00
2022-08-25T20:02:10.831Z,6.90
2022-08-25T20:04:41.116Z,7.03
2022-08-25T20:07:08.724Z,8.13
2022-08-25T20:09:40.928Z,7.47
2022-08-25T20:12:11.849Z,8.18
2022-08-25T20:14:39.688Z,7.20
2022-08-25T20:17:23.157Z,7.15
2022-08-25T20:19:54.081Z,7.72
2022-08-25T20:22:25.845Z,6.45
2022-08-25T20:24:58.238Z,7.85
2022-08-25T20:27:34.593Z,8.13
2022-08-25T20:30:04.911Z,6.85
2022-08-25T20:32:33.537Z,7.28
2022-08-25T20:35:02.895Z,6.90
2022-08-25T20:37:30.827Z,6.70
2022-08-25T20:39:59.265Z,7.38
2022-08-25T20:42:27.353Z,8.73
2022-08-25T20:44:55.680Z,7.38
2022-08-25T20:47:24.450Z,6.57
2022-08-25T20:49:52.035Z,8.13
2022-08-25T20:52:20.880Z,8.13
2022-08-25T20:54:49.339Z,7.57
2022-08-25T20:57:25.518Z,7.07
2022-08-25T20:59:54.774Z,8.95
2022-08-25T21:02:24.106Z,7.45
2022-08-25T21:04:53.084Z,7.35
2022-08-25T21:07:23.908Z,7.85
2022-08-25T21:09:52.203Z,8.23
2022-08-25T21:12:20.290Z,8.75
2022-08-25T21:14:48.484Z,8.15
2022-08-25T21:17:19.014Z,8.05
2022-08-25T21:22:16.563Z,7.57
2022-08-25T21:24:45.005Z,8.43
2022-08-25T21:27:12.491Z,7.88
2022-08-25T21:29:44.757Z,8.57
2022-08-25T21:32:24.130Z,7.95
2022-08-25T21:34:55.533Z,9.20
2022-08-25T21:37:24.419Z,8.38
2022-08-25T21:39:52.969Z,7.57
2022-08-25T21:42:23.195Z,8.75
2022-08-25T21:44:52.115Z,8.48
2022-08-25T21:47:21.658Z,7.53
2022-08-25T21:49:51.004Z,8.80
2022-08-25T21:52:18.946Z,7.93
2022-08-25T21:54:47.023Z,8.57
2022-08-25T21:57:15.004Z,7.80
2022-08-25T21:59:43.467Z,7.75
2022-08-25T22:02:13.252Z,8.07
2022-08-25T22:04:42.823Z,7.72
2022-08-25T22:07:10.917Z,8.13
2022-08-25T22:09:39.947Z,8.23
2022-08-25T22:12:07.988Z,7.90
2022-08-25T22:14:37.604Z,8.32
2022-08-25T22:17:08.147Z,7.47
2022-08-25T22:19:37.744Z,8.43
2022-08-25T22:22:06.797Z,8.05
2022-08-25T22:24:34.255Z,8.88
2022-08-25T22:27:01.846Z,8.93
2022-08-25T22:29:30.583Z,7.22
2022-08-25T22:32:00.890Z,7.88
2022-08-25T22:34:34.389Z,8.32
2022-08-25T22:37:03.837Z,7.50
2022-08-25T22:39:34.268Z,7.90
2022-08-25T22:42:03.630Z,8.50
2022-08-25T22:44:31.202Z,8.73
2022-08-25T22:46:59.424Z,7.97
2022-08-25T22:49:28.747Z,7.63
2022-08-25T22:51:56.105Z,7.40
2022-08-25T22:54:23.958Z,8.80
2022-08-25T22:56:53.475Z,7.95
2022-08-25T22:59:22.203Z,7.72
2022-08-25T23:01:52.495Z,8.35
2022-08-25T23:04:20.586Z,8.23
2022-08-25T23:06:48.091Z,8.82
2022-08-25T23:09:15.465Z,9.35
2022-08-25T23:11:43.573Z,8.05
2022-08-25T23:14:12.148Z,8.38
2022-08-25T23:16:41.695Z,9.20
2022-08-25T23:19:11.085Z,6.75
2022-08-25T23:22:01.368Z,8.10
2022-08-25T23:24:30.750Z,8.70
2022-08-25T23:26:59.818Z,7.85
2022-08-25T23:29:28.756Z,7.93
2022-08-25T23:31:57.516Z,9.10
2022-08-25T23:34:26.290Z,9.05
2022-08-25T23:36:54.253Z,8.70
2022-08-25T23:39:22.187Z,7.25
2022-08-25T23:41:50.342Z,8.35
2022-08-25T23:44:19.358Z,8.88
2022-08-25T23:46:48.125Z,8.85
2022-08-25T23:49:21.055Z,9.13
2022-08-25T23:51:50.329Z,8.48
2022-08-25T23:54:21.154Z,9.27
2022-08-25T23:56:51.987Z,9.93
2022-08-25T23:59:24.835Z,9.23
